Terminal Aerodrome Forecast
Issued by NWS

Home | Current Version | Previous Version | Text Only | Print | Product List | Glossary On
Versions: 1 2 3 4 5 6 7 8 9 10 11 12 13 14 15 16 17 18 19 20 21 22
000
FTUS41 KOKX 301437 AAA
TAFSWF
TAF AMD
KSWF 301437Z 3015/3118 24010KT P6SM BKN018
     FM301600 23010KT P6SM SCT030 BKN050
      TEMPO 3019/3021 VRB15G38KT 1SM +TSRA BKN030CB
     FM302100 25007KT 5SM -SHRA BR BKN040
     FM302300 25005KT P6SM SCT040 BKN080
     FM310200 VRB03KT 5SM BR FEW080
     FM311200 29009KT P6SM SKC
      AMD NOT SKED=

USA.gov is the U.S. government's official web portal to all federal, state and local government web resources and services.